Houston, United Kingdom
Current Conditions -  °F | °C
As of 7:50 AM on Monday 24 Nov 2014 (Local Time) from EGPF Reporting Station
Broken Clouds Broken Clouds  
Wind Chill: 42°   Ceiling: 4000
Heat Index: 46°   Visibility: 6mi
Dew Point: 43°   Wind: 8mph
Humidity: 87%   Direction: 260°W
Pressure: 30.18"   Gusts: NA
Location:  55.87°N, 4.55°W
Report Text: EGPF 240750Z AUTO 26007KT 9999 BKN040 08/06 Q1022
Loading
Personal Weather Stations






























Interactive Weather Map New forecast layout! Learn more

10-Day Weather Forecast

Advertisements
Track Severe Weather on mobile